Time;durP1;ratioP1;P1;durP2;ratioP2;P2;SDS_P1;SDS_P2;PMS_P1;PMS_P2;Temp;Humidity;BMP_temperature;BMP_pressure;BME280_temperature;BME280_humidity;BME280_pressure;Samples;Min_cycle;Max_cycle;Signal;HPM_P1;HPM_P2
2022/11/28 00:01:20;;;;;;;49.90;18.55;;;1.80;99.90;;;;;;5122388;27;20380;-71
2022/11/28 00:03:46;;;;;;;104.53;22.50;;;1.80;99.90;;;;;;5129029;27;20023;-71
2022/11/28 00:06:12;;;;;;;152.85;23.27;;;1.70;99.90;;;;;;5124367;27;20029;-71
2022/11/28 00:08:37;;;;;;;142.98;25.65;;;1.60;99.90;;;;;;5122011;27;20114;-71
2022/11/28 00:11:08;;;;;;;287.58;35.83;;;1.60;99.90;;;;;;5109299;27;20031;-71
2022/11/28 00:13:35;;;;;;;329.13;36.88;;;1.50;99.90;;;;;;5106861;27;20531;-71
2022/11/28 00:16:03;;;;;;;123.22;23.35;;;1.50;99.90;;;;;;5128143;27;20039;-70
2022/11/28 00:18:29;;;;;;;126.95;23.65;;;1.50;99.90;;;;;;5124204;27;20039;-70
2022/11/28 00:21:01;;;;;;;139.18;21.02;;;1.30;99.90;;;;;;5108300;27;20184;-71
2022/11/28 00:23:27;;;;;;;152.10;23.42;;;1.40;99.90;;;;;;5124187;27;20031;-70
2022/11/28 00:26:06;;;;;;;176.27;23.70;;;1.50;99.90;;;;;;5125339;27;20019;-70
2022/11/28 00:28:31;;;;;;;96.88;19.27;;;1.60;99.90;;;;;;5124724;27;20091;-70
2022/11/28 00:30:57;;;;;;;300.50;32.47;;;1.60;99.90;;;;;;5127059;27;20408;-71
2022/11/28 00:33:23;;;;;;;38.65;18.65;;;1.60;99.90;;;;;;5127682;27;20031;-71
2022/11/28 00:35:48;;;;;;;91.32;23.55;;;1.70;99.90;;;;;;5126572;27;20089;-71
2022/11/28 00:38:14;;;;;;;154.70;28.27;;;1.80;99.90;;;;;;5121104;27;20031;-70
2022/11/28 00:40:40;;;;;;;51.35;18.08;;;1.60;99.90;;;;;;5103240;27;20220;-71
2022/11/28 00:43:06;;;;;;;46.03;17.83;;;1.50;99.90;;;;;;5119169;27;20020;-72
2022/11/28 00:45:32;;;;;;;76.45;19.65;;;1.40;99.90;;;;;;5093578;28;20110;-71
2022/11/28 00:47:57;;;;;;;181.73;26.73;;;1.40;99.90;;;;;;5126113;27;20495;-70
2022/11/28 00:50:23;;;;;;;92.93;21.17;;;1.40;99.90;;;;;;5127040;27;20038;-71
2022/11/28 00:52:49;;;;;;;109.03;22.60;;;1.60;99.90;;;;;;5127911;27;20476;-71
2022/11/28 00:55:15;;;;;;;88.45;20.70;;;1.60;99.90;;;;;;5128359;27;20066;-70
2022/11/28 00:57:41;;;;;;;86.82;24.05;;;1.60;99.90;;;;;;5126223;27;20019;-71
2022/11/28 01:00:07;;;;;;;40.92;22.45;;;1.50;99.90;;;;;;5127556;27;20038;-71
2022/11/28 01:02:33;;;;;;;42.47;16.65;;;1.40;99.90;;;;;;5128496;27;20019;-71
2022/11/28 01:04:59;;;;;;;44.67;20.67;;;1.30;99.90;;;;;;5118937;27;20024;-71
2022/11/28 01:07:27;;;;;;;20.17;16.88;;;1.40;99.90;;;;;;5116467;27;20118;-71
2022/11/28 01:09:56;;;;;;;42.10;17.23;;;1.50;99.90;;;;;;5107905;28;20560;-71
2022/11/28 01:12:22;;;;;;;32.58;16.63;;;1.50;99.90;;;;;;5128130;27;20042;-71
2022/11/28 01:14:47;;;;;;;17.65;15.57;;;1.50;99.90;;;;;;5127759;27;20492;-71
2022/11/28 01:17:13;;;;;;;25.45;11.95;;;1.50;99.90;;;;;;5123662;27;20390;-71
2022/11/28 01:19:38;;;;;;;19.63;17.75;;;1.50;99.90;;;;;;5126696;28;20027;-72
2022/11/28 01:22:05;;;;;;;19.05;15.52;;;1.40;99.90;;;;;;5126993;28;20052;-71
2022/11/28 01:24:31;;;;;;;28.55;15.10;;;1.40;99.90;;;;;;5124459;28;20077;-71
2022/11/28 01:26:57;;;;;;;28.85;16.35;;;1.40;99.90;;;;;;5122864;28;20099;-72
2022/11/28 01:29:23;;;;;;;17.25;14.52;;;1.40;99.90;;;;;;5125974;28;20058;-71
2022/11/28 01:31:48;;;;;;;15.50;14.10;;;1.40;99.90;;;;;;5124164;28;20054;-71
2022/11/28 01:34:15;;;;;;;20.73;19.02;;;1.50;99.90;;;;;;5127434;28;20051;-71
2022/11/28 01:36:41;;;;;;;24.20;16.83;;;1.40;99.90;;;;;;5126108;28;20027;-71
2022/11/28 01:39:06;;;;;;;51.03;18.30;;;1.40;99.90;;;;;;5124808;28;20404;-71
2022/11/28 01:41:32;;;;;;;66.75;22.58;;;1.50;99.90;;;;;;5125295;28;20492;-70
2022/11/28 01:44:27;;;;;;;76.10;21.08;;;1.50;99.90;;;;;;5090838;28;20072;-71
2022/11/28 01:46:52;;;;;;;90.68;21.27;;;1.50;99.90;;;;;;5111435;28;20019;-71
2022/11/28 01:49:23;;;;;;;110.93;20.67;;;1.40;99.90;;;;;;5116492;28;20076;-71
2022/11/28 01:51:51;;;;;;;;;;;1.40;99.90;;;;;;5126794;28;20031;-71
2022/11/28 01:54:19;;;;;;;40.47;12.80;;;1.40;99.90;;;;;;5106182;28;20387;-70
2022/11/28 01:57:01;;;;;;;17.30;15.57;;;1.40;99.90;;;;;;5125884;28;20046;-70
2022/11/28 01:59:31;;;;;;;69.53;16.38;;;1.60;99.90;;;;;;5125425;28;20035;-71
2022/11/28 02:01:57;;;;;;;72.83;22.37;;;1.50;99.90;;;;;;5124707;28;20088;-71
2022/11/28 02:04:25;;;;;;;53.97;19.73;;;1.40;99.90;;;;;;5127363;28;20027;-70
2022/11/28 02:06:51;;;;;;;58.50;20.70;;;1.50;99.90;;;;;;5132513;27;20028;-72
2022/11/28 02:09:17;;;;;;;37.50;17.92;;;1.50;99.90;;;;;;5125009;27;20020;-70
2022/11/28 02:12:01;;;;;;;31.52;17.27;;;1.50;99.90;;;;;;5122197;27;20034;-71
2022/11/28 02:14:57;;;;;;;62.85;19.35;;;1.60;99.90;;;;;;5130494;27;20067;-70
2022/11/28 02:17:53;;;;;;;19.02;17.08;;;1.60;99.90;;;;;;5127794;27;20395;-71
2022/11/28 02:20:31;;;;;;;25.10;16.20;;;1.70;99.90;;;;;;5131499;27;20046;-71
2022/11/28 02:23:07;;;;;;;18.10;15.48;;;1.40;99.90;;;;;;5123657;27;20034;-71
2022/11/28 02:26:02;;;;;;;18.02;15.90;;;1.40;99.90;;;;;;5130080;27;20125;-70
2022/11/28 02:29:12;;;;;;;77.10;18.80;;;1.60;99.90;;;;;;5071613;27;20799;-71
2022/11/28 02:32:01;;;;;;;25.92;16.92;;;1.70;99.90;;;;;;5126942;27;20522;-71
2022/11/28 02:34:39;;;;;;;37.15;16.92;;;1.60;99.90;;;;;;5128195;27;20042;-71
2022/11/28 02:37:28;;;;;;;47.95;18.05;;;1.70;99.90;;;;;;5125323;27;20023;-70
2022/11/28 02:40:22;;;;;;;49.90;15.32;;;1.70;99.90;;;;;;5129705;27;20027;-70
2022/11/28 02:43:10;;;;;;;18.98;15.55;;;1.70;99.90;;;;;;5121794;27;20020;-71
2022/11/28 02:46:01;;;;;;;35.20;17.17;;;1.80;99.90;;;;;;5122815;27;20031;-71
2022/11/28 02:48:58;;;;;;;30.10;14.85;;;1.60;99.90;;;;;;5118349;27;20732;-70
2022/11/28 02:51:47;;;;;;;128.88;18.70;;;1.60;99.90;;;;;;5128350;27;20050;-71
2022/11/28 02:54:16;;;;;;;86.55;17.77;;;1.80;99.90;;;;;;5125141;27;20038;-71
2022/11/28 02:56:52;;;;;;;56.88;18.75;;;1.70;99.90;;;;;;5126718;27;20027;-71
2022/11/28 02:59:38;;;;;;;70.28;18.55;;;1.70;99.90;;;;;;5123168;27;20118;-71
2022/11/28 03:02:12;;;;;;;83.05;19.70;;;1.70;99.90;;;;;;5111005;27;20051;-70
2022/11/28 03:04:58;;;;;;;93.82;21.05;;;1.70;99.90;;;;;;5125971;27;20215;-71
2022/11/28 03:08:04;;;;;;;29.52;15.82;;;1.70;99.90;;;;;;5128771;27;20110;-71
2022/11/28 03:10:49;;;;;;;22.85;15.35;;;1.50;99.90;;;;;;5126521;27;20024;-71
2022/11/28 03:13:25;;;;;;;111.50;18.17;;;1.50;99.90;;;;;;5125302;27;20031;-70
2022/11/28 03:16:11;;;;;;;16.08;14.05;;;1.80;99.90;;;;;;5121991;27;20030;-72
2022/11/28 03:18:44;;;;;;;37.13;16.08;;;1.70;99.90;;;;;;5125785;27;20027;-71
2022/11/28 03:21:23;;;;;;;31.85;15.57;;;1.80;99.90;;;;;;5125498;27;20040;-71
2022/11/28 03:23:58;;;;;;;17.85;15.63;;;1.70;99.90;;;;;;5122801;27;20128;-71
2022/11/28 03:26:32;;;;;;;185.65;26.70;;;1.80;99.90;;;;;;5128790;27;20031;-71
2022/11/28 03:29:31;;;;;;;128.30;21.95;;;1.50;99.90;;;;;;5126177;27;20501;-70
2022/11/28 03:32:02;;;;;;;96.47;19.60;;;1.50;99.90;;;;;;5071510;27;20046;-71
2022/11/28 03:34:38;;;;;;;68.65;18.60;;;1.70;99.90;;;;;;5125939;27;20023;-71
2022/11/28 03:37:10;;;;;;;74.82;18.05;;;1.80;99.90;;;;;;5127911;27;20027;-71
2022/11/28 03:39:40;;;;;;;30.52;15.38;;;1.70;99.90;;;;;;5129893;27;20016;-71
2022/11/28 03:42:12;;;;;;;30.42;15.20;;;1.70;99.90;;;;;;5126663;27;20046;-71
2022/11/28 03:44:46;;;;;;;39.15;18.63;;;1.60;99.90;;;;;;5124600;27;20028;-71
2022/11/28 03:47:12;;;;;;;30.75;17.98;;;1.60;99.90;;;;;;5126718;27;20419;-71
2022/11/28 03:49:49;;;;;;;35.00;18.63;;;1.80;99.90;;;;;;5129340;27;20033;-70
2022/11/28 03:52:22;;;;;;;30.73;18.30;;;1.60;99.90;;;;;;5122082;27;20034;-71
2022/11/28 03:54:50;;;;;;;44.17;17.92;;;1.80;99.90;;;;;;5101508;27;20075;-70
2022/11/28 03:57:37;;;;;;;52.80;17.30;;;1.90;99.90;;;;;;5127656;27;20059;-71
2022/11/28 04:00:08;;;;;;;38.72;16.95;;;1.90;99.90;;;;;;5108135;27;20396;-71
2022/11/28 04:02:59;;;;;;;30.58;15.95;;;1.70;99.90;;;;;;5128501;27;20071;-72
2022/11/28 04:05:45;;;;;;;18.67;14.27;;;1.60;99.90;;;;;;5126179;27;20115;-71
2022/11/28 04:08:25;;;;;;;33.25;16.52;;;1.60;99.90;;;;;;5125012;27;20025;-70
2022/11/28 04:10:59;;;;;;;33.42;15.77;;;1.70;99.90;;;;;;5122677;27;20023;-70
2022/11/28 04:13:35;;;;;;;25.25;17.88;;;1.90;99.90;;;;;;5126079;27;20023;-71
2022/11/28 04:16:10;;;;;;;123.25;20.05;;;1.80;99.90;;;;;;5122384;27;20019;-71
2022/11/28 04:18:50;;;;;;;42.42;18.25;;;1.70;99.90;;;;;;5127959;27;20536;-70
2022/11/28 04:21:19;;;;;;;21.73;15.60;;;1.70;99.90;;;;;;5124263;27;20050;-71
2022/11/28 04:23:47;;;;;;;17.88;16.15;;;1.80;99.90;;;;;;5124505;27;20019;-71
2022/11/28 04:26:29;;;;;;;56.40;16.88;;;1.80;99.90;;;;;;5128936;27;20076;-71
2022/11/28 04:28:57;;;;;;;29.42;16.38;;;1.80;99.90;;;;;;5126350;27;20504;-69
2022/11/28 04:31:24;;;;;;;19.95;15.13;;;1.60;99.90;;;;;;5102398;27;20032;-70
2022/11/28 04:33:57;;;;;;;20.38;16.52;;;1.60;99.90;;;;;;5120496;27;20031;-70
2022/11/28 04:36:24;;;;;;;29.90;17.85;;;1.70;99.90;;;;;;5129012;27;20031;-71
2022/11/28 04:38:55;;;;;;;18.13;16.63;;;1.60;99.90;;;;;;5123049;27;20619;-70
2022/11/28 04:41:33;;;;;;;26.15;18.35;;;1.70;99.90;;;;;;5124729;27;20035;-71
2022/11/28 04:44:18;;;;;;;17.02;15.18;;;1.80;99.90;;;;;;5124969;27;20019;-71
2022/11/28 04:46:50;;;;;;;28.95;16.10;;;1.60;99.90;;;;;;5115060;27;20023;-70
2022/11/28 04:49:16;;;;;;;19.52;14.07;;;1.60;99.90;;;;;;5124187;27;20135;-70
2022/11/28 04:51:50;;;;;;;19.35;14.70;;;1.50;99.90;;;;;;5120265;27;20023;-70
2022/11/28 04:54:52;;;;;;;18.42;15.07;;;1.70;99.90;;;;;;5124449;27;20058;-71
2022/11/28 04:57:43;;;;;;;16.30;14.63;;;1.70;99.90;;;;;;5123014;27;20049;-70
2022/11/28 05:00:16;;;;;;;15.68;14.27;;;1.70;99.90;;;;;;5127702;27;20617;-71
2022/11/28 05:02:44;;;;;;;18.08;16.27;;;1.70;99.90;;;;;;5120170;27;20031;-71
2022/11/28 05:05:18;;;;;;;17.75;15.73;;;1.60;99.90;;;;;;5125159;27;20019;-70
2022/11/28 05:07:44;;;;;;;19.63;17.30;;;1.60;99.90;;;;;;5124327;27;20686;-71
2022/11/28 05:10:13;;;;;;;17.58;15.75;;;1.50;99.90;;;;;;5125774;27;20019;-70
2022/11/28 05:12:39;;;;;;;16.20;14.77;;;1.50;99.90;;;;;;5117640;27;20031;-71
2022/11/28 05:15:06;;;;;;;16.60;14.90;;;1.50;99.90;;;;;;5123597;27;20031;-71
2022/11/28 05:17:32;;;;;;;19.88;17.20;;;1.50;99.90;;;;;;5106894;28;20024;-71
2022/11/28 05:19:58;;;;;;;16.45;14.77;;;1.60;99.90;;;;;;5125141;27;20042;-71
2022/11/28 05:22:23;;;;;;;16.85;15.15;;;1.60;99.90;;;;;;5124532;27;20112;-72
2022/11/28 05:24:49;;;;;;;16.48;14.80;;;1.60;99.90;;;;;;5123579;28;20035;-72
2022/11/28 05:27:15;;;;;;;15.65;13.90;;;1.50;99.90;;;;;;5124943;28;20027;-71
2022/11/28 05:29:43;;;;;;;16.73;14.23;;;1.50;99.90;;;;;;5125624;28;20468;-72
2022/11/28 05:32:11;;;;;;;17.38;14.07;;;1.50;99.90;;;;;;5124024;28;20080;-69
2022/11/28 05:34:37;;;;;;;16.08;14.65;;;1.40;99.90;;;;;;5128440;27;20638;-69
2022/11/28 05:37:04;;;;;;;15.50;14.10;;;1.40;99.90;;;;;;5127693;28;20028;-73
2022/11/28 05:39:50;;;;;;;16.27;14.77;;;1.40;99.90;;;;;;5122135;28;20559;-70
2022/11/28 05:42:16;;;;;;;14.68;13.50;;;1.30;99.90;;;;;;5125203;27;20042;-70
2022/11/28 05:46:34;;;;;;;17.40;13.38;;;1.30;99.90;;;;;;5113497;27;20322;-73
2022/11/28 05:49:00;;;;;;;15.30;13.73;;;1.40;99.90;;;;;;5093706;28;20120;-72
2022/11/28 05:51:27;;;;;;;14.85;13.50;;;1.40;99.90;;;;;;5079370;22;20130;-78
2022/11/28 05:54:06;;;;;;;17.73;14.20;;;1.40;99.90;;;;;;5042511;28;20030;-83
2022/11/28 05:58:11;;;;;;;13.57;12.38;;;1.30;99.90;;;;;;5077109;27;20377;-85
2022/11/28 06:00:37;;;;;;;15.27;13.75;;;1.30;99.90;;;;;;5069250;28;20383;-88
2022/11/28 06:06:27;;;;;;;14.23;13.02;;;1.30;99.90;;;;;;5052907;28;20079;-85
2022/11/28 06:08:53;;;;;;;17.25;14.57;;;1.30;99.90;;;;;;5064359;28;20150;-84
2022/11/28 06:11:21;;;;;;;16.15;14.43;;;1.30;99.90;;;;;;5064507;28;20090;-88
2022/11/28 06:13:48;;;;;;;16.13;14.68;;;1.40;99.90;;;;;;5059979;28;20032;-84
2022/11/28 06:16:22;;;;;;;17.25;15.18;;;1.40;99.90;;;;;;5061397;28;20033;-87
2022/11/28 06:18:52;;;;;;;15.20;13.70;;;1.30;99.90;;;;;;5064268;28;20020;-86
2022/11/28 06:21:18;;;;;;;15.48;13.85;;;1.20;99.90;;;;;;5068760;28;20044;-85
2022/11/28 06:23:43;;;;;;;16.38;14.35;;;1.30;99.90;;;;;;5057565;28;20521;-86
2022/11/28 06:26:11;;;;;;;15.15;13.68;;;1.20;99.90;;;;;;5066638;28;20047;-83
2022/11/28 06:28:37;;;;;;;15.40;13.98;;;1.30;99.90;;;;;;5038296;28;20090;-82
2022/11/28 06:31:08;;;;;;;17.77;14.57;;;1.40;99.90;;;;;;5049955;28;20091;-85
2022/11/28 06:33:33;;;;;;;16.15;13.60;;;1.30;99.90;;;;;;5064419;28;20045;-87
2022/11/28 06:42:10;;;;;;;12.48;11.18;;;1.30;99.90;;;;;;5105816;28;20568;-86
2022/11/28 06:44:38;;;;;;;59.50;34.88;;;1.20;99.90;;;;;;5105726;28;20804;-89
2022/11/28 06:47:05;;;;;;;24.77;19.58;;;1.20;99.90;;;;;;5111257;28;20481;-85
2022/11/28 06:49:30;;;;;;;16.67;15.00;;;1.30;99.90;;;;;;5107770;28;20027;-88
2022/11/28 06:51:56;;;;;;;29.05;23.45;;;1.40;99.90;;;;;;5096310;28;20081;-86
2022/11/28 06:54:22;;;;;;;18.92;16.98;;;1.40;99.90;;;;;;5109394;28;20493;-83
2022/11/28 06:56:47;;;;;;;17.13;15.50;;;1.30;99.90;;;;;;5105760;28;20415;-83
2022/11/28 06:59:16;;;;;;;19.02;17.33;;;1.30;99.90;;;;;;5111055;28;20542;-85
2022/11/28 07:01:42;;;;;;;16.30;14.82;;;1.30;99.90;;;;;;5098932;28;20097;-85
2022/11/28 07:04:13;;;;;;;17.70;15.98;;;1.10;99.90;;;;;;5086024;28;20485;-89
2022/11/28 07:06:39;;;;;;;19.67;17.27;;;1.20;99.90;;;;;;5084597;28;20032;-81
2022/11/28 07:09:05;;;;;;;17.38;15.63;;;1.30;99.90;;;;;;5098514;28;20028;-88
2022/11/28 07:11:31;;;;;;;19.20;17.20;;;1.30;99.90;;;;;;5086742;28;20050;-86
2022/11/28 07:13:59;;;;;;;18.30;16.52;;;1.30;99.90;;;;;;5092133;28;20062;-82
2022/11/28 07:16:27;;;;;;;17.45;15.70;;;1.20;99.90;;;;;;5095130;28;20482;-84
2022/11/28 07:18:54;;;;;;;17.15;15.55;;;1.30;99.90;;;;;;5087472;28;20020;-82
2022/11/28 07:21:20;;;;;;;17.45;15.95;;;1.20;99.90;;;;;;5093263;28;20302;-83
2022/11/28 07:23:47;;;;;;;15.18;13.88;;;1.40;99.90;;;;;;5069171;28;20478;-84
2022/11/28 07:26:15;;;;;;;16.13;14.82;;;1.40;99.90;;;;;;5093110;28;20028;-81
2022/11/28 07:28:42;;;;;;;17.88;15.95;;;1.30;99.90;;;;;;5086724;28;20039;-84
2022/11/28 07:31:10;;;;;;;16.75;15.30;;;1.30;99.90;;;;;;5068261;28;20021;-84
2022/11/28 07:33:37;;;;;;;17.60;15.38;;;1.30;99.90;;;;;;5061119;28;20395;-81
2022/11/28 07:36:04;;;;;;;16.70;15.18;;;1.30;99.90;;;;;;5056403;28;20102;-85
2022/11/28 07:38:31;;;;;;;16.92;15.25;;;1.60;99.90;;;;;;5078066;28;20033;-84
2022/11/28 07:41:05;;;;;;;17.60;15.65;;;1.60;99.90;;;;;;5062521;28;20028;-82
2022/11/28 07:43:30;;;;;;;15.05;13.70;;;1.60;99.90;;;;;;5060077;28;20082;-82
2022/11/28 07:45:56;;;;;;;16.67;14.43;;;1.50;99.90;;;;;;5059366;28;20736;-82
2022/11/28 07:48:22;;;;;;;16.30;14.93;;;1.50;99.90;;;;;;5054182;28;20024;-86
2022/11/28 07:50:47;;;;;;;17.35;15.23;;;1.40;99.90;;;;;;5041529;28;20652;-83
2022/11/28 07:53:13;;;;;;;16.67;15.10;;;1.40;99.90;;;;;;5043207;28;20064;-81
2022/11/28 07:55:39;;;;;;;17.05;15.23;;;1.50;99.90;;;;;;5030489;28;20445;-79
2022/11/28 07:58:04;;;;;;;17.98;15.95;;;1.60;99.90;;;;;;5045042;28;20036;-79
2022/11/28 08:00:31;;;;;;;19.00;17.38;;;1.60;99.90;;;;;;5048947;28;20121;-81
2022/11/28 08:02:59;;;;;;;18.85;17.05;;;1.80;99.90;;;;;;5046277;28;20055;-83
2022/11/28 08:05:25;;;;;;;17.98;16.35;;;1.90;99.90;;;;;;5056634;28;20037;-80
2022/11/28 08:07:51;;;;;;;16.38;14.98;;;2.00;99.90;;;;;;5047735;28;20032;-77
2022/11/28 08:10:17;;;;;;;18.67;16.95;;;1.80;99.90;;;;;;5049777;28;20044;-78
2022/11/28 08:12:44;;;;;;;18.33;16.75;;;1.70;99.90;;;;;;5046857;28;20087;-79
2022/11/28 08:15:10;;;;;;;16.27;14.98;;;1.60;99.90;;;;;;5049603;28;20044;-78
2022/11/28 08:17:37;;;;;;;17.92;16.35;;;1.70;99.90;;;;;;5047779;28;20033;-78
2022/11/28 08:20:03;;;;;;;19.08;17.23;;;1.80;99.90;;;;;;5039815;28;20043;-76
2022/11/28 08:22:29;;;;;;;19.08;16.40;;;1.80;99.90;;;;;;5051315;28;20068;-79
2022/11/28 08:24:55;;;;;;;16.92;15.40;;;2.00;99.90;;;;;;5047848;28;20049;-80
2022/11/28 08:27:21;;;;;;;15.98;14.55;;;2.10;99.90;;;;;;5044428;28;20029;-78
2022/11/28 08:29:47;;;;;;;15.88;14.55;;;2.20;99.90;;;;;;5052467;28;20566;-80
2022/11/28 08:32:12;;;;;;;16.08;14.65;;;2.00;99.90;;;;;;5046630;28;20110;-78
2022/11/28 08:34:38;;;;;;;14.15;12.90;;;2.00;99.90;;;;;;5049034;28;20098;-79
2022/11/28 08:37:03;;;;;;;16.48;14.98;;;2.00;99.90;;;;;;5051702;28;20053;-79
2022/11/28 08:39:29;;;;;;;17.85;15.57;;;2.00;99.90;;;;;;5046046;28;20483;-80
2022/11/28 08:41:57;;;;;;;15.82;14.52;;;2.00;99.90;;;;;;5051088;28;20475;-78
2022/11/28 08:44:23;;;;;;;18.70;15.57;;;2.10;99.90;;;;;;5061646;28;20670;-78
2022/11/28 08:46:49;;;;;;;16.70;14.93;;;2.10;99.90;;;;;;5041492;28;20058;-77
2022/11/28 08:49:14;;;;;;;16.92;15.35;;;2.10;99.90;;;;;;5042815;28;20036;-80
2022/11/28 08:51:40;;;;;;;17.10;15.13;;;2.20;99.90;;;;;;5040734;28;20041;-80
2022/11/28 08:54:06;;;;;;;20.20;18.40;;;2.20;99.90;;;;;;5040681;28;20124;-80
2022/11/28 08:56:32;;;;;;;18.10;16.13;;;2.30;99.90;;;;;;5049458;28;20044;-78
2022/11/28 08:58:59;;;;;;;17.50;15.75;;;2.30;99.90;;;;;;5048779;28;20706;-80
2022/11/28 09:01:25;;;;;;;17.23;15.52;;;2.40;99.90;;;;;;5047855;28;20037;-82
2022/11/28 09:03:53;;;;;;;28.88;16.50;;;2.50;99.90;;;;;;5036393;28;20052;-81
2022/11/28 09:06:20;;;;;;;16.15;14.45;;;2.60;99.90;;;;;;5046901;28;20041;-82
2022/11/28 09:08:46;;;;;;;16.67;15.18;;;2.60;99.90;;;;;;5040095;28;20017;-80
2022/11/28 09:11:15;;;;;;;18.40;16.52;;;2.70;99.90;;;;;;5048480;28;20094;-86
2022/11/28 09:13:41;;;;;;;19.35;16.77;;;2.80;99.90;;;;;;5048751;28;20029;-84
2022/11/28 09:16:07;;;;;;;16.95;15.45;;;2.80;99.90;;;;;;5047210;28;20029;-81
2022/11/28 09:18:34;;;;;;;16.55;14.95;;;2.90;99.90;;;;;;5045198;28;20839;-83
2022/11/28 09:21:03;;;;;;;22.17;16.90;;;2.90;99.90;;;;;;5046157;28;20060;-80
2022/11/28 09:23:30;;;;;;;19.63;16.27;;;2.90;99.90;;;;;;5044049;28;20044;-82
2022/11/28 09:25:56;;;;;;;21.95;19.70;;;3.00;99.90;;;;;;5047846;28;20029;-81
2022/11/28 09:28:23;;;;;;;17.27;15.63;;;3.00;99.90;;;;;;5061550;28;20032;-82
2022/11/28 09:30:50;;;;;;;27.05;24.70;;;3.10;99.90;;;;;;5052201;28;20566;-84
2022/11/28 09:33:15;;;;;;;18.45;16.38;;;3.00;99.90;;;;;;5040055;28;20045;-84
2022/11/28 09:35:41;;;;;;;21.55;18.17;;;3.10;99.90;;;;;;5034768;28;20029;-82
2022/11/28 09:38:07;;;;;;;18.25;16.35;;;3.20;99.90;;;;;;5034559;28;20049;-81
2022/11/28 09:40:42;;;;;;;24.00;19.67;;;3.30;99.90;;;;;;5046943;28;20059;-82
2022/11/28 09:43:29;;;;;;;17.85;16.20;;;3.30;99.90;;;;;;5027585;28;20055;-80
2022/11/28 09:45:58;;;;;;;21.58;19.67;;;3.30;99.90;;;;;;5057606;28;20056;-81
2022/11/28 09:48:35;;;;;;;20.00;16.70;;;3.40;99.90;;;;;;5046524;28;20044;-79
2022/11/28 09:51:39;;;;;;;17.13;15.52;;;3.40;99.90;;;;;;5047924;28;20033;-83
2022/11/28 09:54:36;;;;;;;18.48;16.67;;;3.40;99.90;;;;;;5042045;28;20032;-82
2022/11/28 09:57:10;;;;;;;24.02;20.30;;;3.60;99.90;;;;;;5045201;28;20032;-81
2022/11/28 09:59:37;;;;;;;18.25;16.15;;;3.70;99.90;;;;;;5047249;28;20379;-81
2022/11/28 10:02:06;;;;;;;17.30;15.60;;;3.80;99.90;;;;;;5047720;28;20053;-82
2022/11/28 10:04:55;;;;;;;18.40;16.60;;;3.80;99.90;;;;;;5045895;28;20068;-79
2022/11/28 10:07:31;;;;;;;17.38;15.77;;;3.70;99.90;;;;;;5042008;28;20036;-81
2022/11/28 10:10:16;;;;;;;17.73;16.20;;;3.90;99.90;;;;;;5039606;28;20033;-80
2022/11/28 10:12:55;;;;;;;18.98;16.48;;;4.10;99.90;;;;;;5048946;28;20120;-82
2022/11/28 10:15:37;;;;;;;18.13;15.68;;;4.30;99.90;;;;;;5058178;28;20516;-79
2022/11/28 10:18:17;;;;;;;17.85;15.98;;;4.50;99.90;;;;;;5040949;28;20028;-80
2022/11/28 10:20:47;;;;;;;16.88;14.05;;;4.70;99.90;;;;;;5040853;28;20123;-77
2022/11/28 10:23:16;;;;;;;18.25;15.32;;;4.60;99.90;;;;;;5041047;28;20971;-78
2022/11/28 10:25:48;;;;;;;16.20;14.60;;;4.50;99.90;;;;;;5045351;28;20788;-80
2022/11/28 10:28:18;;;;;;;17.85;15.90;;;4.40;99.90;;;;;;5045450;28;20078;-82
2022/11/28 10:30:50;;;;;;;16.80;15.05;;;4.40;99.90;;;;;;5045447;28;20056;-77
2022/11/28 10:33:22;;;;;;;20.00;18.08;;;4.40;99.90;;;;;;5041828;28;20036;-83
2022/11/28 10:35:52;;;;;;;16.30;14.57;;;4.50;99.90;;;;;;5054447;28;20083;-77
2022/11/28 10:38:24;;;;;;;;;;;4.50;99.90;;;;;;5042480;28;20148;-81
2022/11/28 10:41:03;;;;;;;14.80;13.50;;;4.70;99.90;;;;;;5053543;28;20624;-80
2022/11/28 10:43:42;;;;;;;16.10;14.02;;;4.90;99.90;;;;;;5045548;28;20040;-77
2022/11/28 10:46:29;;;;;;;19.42;17.38;;;5.00;99.90;;;;;;5039941;28;20017;-81
2022/11/28 10:49:04;;;;;;;15.50;13.93;;;5.00;99.90;;;;;;5059497;28;20025;-78
2022/11/28 10:51:35;;;;;;;94.25;85.97;;;5.00;99.90;;;;;;5040315;28;20033;-79
2022/11/28 10:54:37;;;;;;;15.35;13.02;;;4.90;99.90;;;;;;5043902;28;20029;-78
2022/11/28 10:57:14;;;;;;;15.45;14.00;;;5.10;99.90;;;;;;5042037;28;20130;-78
2022/11/28 11:00:11;;;;;;;15.10;13.25;;;5.10;99.90;;;;;;5043862;28;20032;-78
2022/11/28 11:02:43;;;;;;;17.60;14.15;;;5.20;99.90;;;;;;5064649;28;20521;-79
2022/11/28 11:05:30;;;;;;;14.45;12.93;;;5.20;99.90;;;;;;5057914;28;20029;-78
2022/11/28 11:08:01;;;;;;;17.77;14.70;;;5.30;99.90;;;;;;5056549;28;20069;-80
2022/11/28 11:10:49;;;;;;;16.02;14.30;;;5.20;99.90;;;;;;5055185;28;20032;-81
2022/11/28 11:13:21;;;;;;;15.60;14.00;;;5.30;99.90;;;;;;5059667;28;20020;-79
2022/11/28 11:16:08;;;;;;;15.75;13.98;;;5.50;99.90;;;;;;5046937;28;20030;-81
2022/11/28 11:18:43;;;;;;;15.88;13.63;;;5.70;99.90;;;;;;5054378;28;20041;-79
2022/11/28 11:21:20;;;;;;;15.75;13.77;;;6.00;99.90;;;;;;5057860;28;20017;-78
2022/11/28 11:23:49;;;;;;;15.32;12.95;;;6.20;99.90;;;;;;5069369;28;20077;-79
2022/11/28 11:26:39;;;;;;;18.77;12.73;;;6.30;99.90;;;;;;5072099;28;20043;-78
2022/11/28 11:29:05;;;;;;;15.57;12.98;;;6.30;99.90;;;;;;5063696;28;20375;-81
2022/11/28 11:31:41;;;;;;;13.80;12.20;;;6.10;99.50;;;;;;5063723;28;20402;-81
2022/11/28 11:34:14;;;;;;;13.32;12.00;;;6.20;99.90;;;;;;5053603;28;20785;-78
2022/11/28 11:36:45;;;;;;;16.35;13.43;;;6.20;99.30;;;;;;5069167;28;20064;-85
2022/11/28 11:39:11;;;;;;;13.57;12.27;;;6.40;99.80;;;;;;5071757;28;20028;-79
2022/11/28 11:41:44;;;;;;;12.95;11.73;;;6.30;98.40;;;;;;5074113;28;20025;-78
2022/11/28 11:44:14;;;;;;;13.68;12.43;;;6.20;99.10;;;;;;5067048;28;20524;-82
2022/11/28 11:47:04;;;;;;;16.17;12.37;;;6.20;97.70;;;;;;5076233;28;20048;-81
2022/11/28 11:49:44;;;;;;;13.20;11.73;;;6.50;99.10;;;;;;5075917;28;20036;-79
2022/11/28 11:52:22;;;;;;;13.70;12.27;;;6.30;98.10;;;;;;5071863;28;20059;-81
2022/11/28 11:54:59;;;;;;;13.02;11.75;;;6.60;99.40;;;;;;5071884;28;20051;-81
2022/11/28 11:57:25;;;;;;;18.83;12.88;;;6.80;98.30;;;;;;5073454;28;20040;-80
2022/11/28 11:59:59;;;;;;;13.45;12.15;;;6.70;98.40;;;;;;5072141;28;20019;-83
2022/11/28 12:02:36;;;;;;;15.15;12.88;;;6.70;97.60;;;;;;5052550;28;20115;-79
2022/11/28 12:05:14;;;;;;;14.10;12.80;;;6.60;97.70;;;;;;5077963;28;20029;-79
2022/11/28 12:07:58;;;;;;;16.98;13.18;;;6.50;97.30;;;;;;5049037;28;20113;-82
2022/11/28 12:10:34;;;;;;;18.85;13.20;;;6.60;98.00;;;;;;5056888;28;20044;-80
2022/11/28 12:13:01;;;;;;;14.18;12.98;;;6.80;97.80;;;;;;5066221;28;20774;-81
2022/11/28 12:15:43;;;;;;;15.63;13.68;;;6.70;97.70;;;;;;5042593;28;20037;-80
2022/11/28 12:18:17;;;;;;;15.90;13.15;;;6.80;97.70;;;;;;5068989;28;20120;-79
2022/11/28 12:21:11;;;;;;;15.65;13.45;;;6.70;97.30;;;;;;5053729;28;20155;-81
2022/11/28 12:23:57;;;;;;;15.43;13.30;;;6.90;97.50;;;;;;5056365;28;20666;-78
2022/11/28 12:27:19;;;;;;;19.30;14.18;;;7.10;97.40;;;;;;5060190;28;20028;-77
2022/11/28 12:29:56;;;;;;;15.77;12.52;;;7.20;97.60;;;;;;4969308;28;20496;-80
2022/11/28 12:32:46;;;;;;;15.07;13.20;;;7.10;96.90;;;;;;5060830;28;20032;-77
2022/11/28 12:35:18;;;;;;;14.85;12.88;;;6.90;97.00;;;;;;5073584;28;20021;-81
2022/11/28 12:38:19;;;;;;;17.92;13.55;;;6.70;96.60;;;;;;5068014;28;20549;-79
2022/11/28 12:41:06;;;;;;;15.25;13.80;;;6.60;97.30;;;;;;5073608;28;20033;-79
2022/11/28 12:43:45;;;;;;;16.88;15.15;;;6.70;97.10;;;;;;5079373;28;20032;-80
2022/11/28 12:46:38;;;;;;;15.57;14.13;;;6.90;97.20;;;;;;5065023;28;20025;-85
2022/11/28 12:49:03;;;;;;;14.13;12.82;;;7.20;97.40;;;;;;5059104;28;20513;-81
2022/11/28 12:52:10;;;;;;;18.95;16.95;;;7.20;97.50;;;;;;5070326;28;20075;-80
2022/11/28 12:55:11;;;;;;;14.13;12.55;;;7.00;96.90;;;;;;5050452;28;20131;-81
2022/11/28 12:58:02;;;;;;;14.98;12.57;;;7.00;96.50;;;;;;5045602;28;20119;-81
2022/11/28 13:00:28;;;;;;;14.80;13.27;;;7.00;96.30;;;;;;5059432;28;20515;-80
2022/11/28 13:03:22;;;;;;;14.63;13.23;;;7.10;96.60;;;;;;5040799;28;20029;-79
2022/11/28 13:06:06;;;;;;;14.85;12.88;;;7.40;96.90;;;;;;5048563;28;20096;-84
2022/11/28 13:08:41;;;;;;;15.45;13.82;;;7.40;96.20;;;;;;5045874;28;20470;-84
2022/11/28 13:11:22;;;;;;;14.02;12.25;;;7.30;95.70;;;;;;5045273;28;20082;-80
2022/11/28 13:13:57;;;;;;;15.60;12.93;;;7.30;95.00;;;;;;5058519;28;20111;-80
2022/11/28 13:16:45;;;;;;;29.67;14.25;;;7.20;95.80;;;;;;5046851;28;20036;-82
2022/11/28 13:19:14;;;;;;;15.80;14.40;;;7.10;95.00;;;;;;5047647;28;20546;-84